SBSP/CGH METAR and TAF weather

Enter ICAO airport designator
Station Type Date Time Source
SBSP METAR 2020/07/10 23:00 UTC NOAA

SBSP 102300Z 11002KT CAVOK 17/13 Q1022


Station Type Date Time Source
SBSP Decoded METAR 2020/07/10 23:00 UTC NOAA

Sao Paulo/Congonhas Aeroporto, Brazil (SBSP) 23-37S 046-39W 802M
Jul 10, 2020 - 07:00 PM EDT / 2020.07.10 2300 UTC
Wind: from the ESE (110 degrees) at 2 MPH (2 KT):0
Visibility: greater than 7 mile(s):0
Temperature: 62 F (17 C)
Dew Point: 55 F (13 C)
Relative Humidity: 77%
Pressure (altimeter): 30.18 in. Hg (1022 hPa)
ob: SBSP 102300Z 11002KT CAVOK 17/13 Q1022
cycle: 23

Station Type Date Time Source
SBSP TAF 2020/07/10 18:18 UTC NOAA

TAF TAF SBSP 101600Z 1018/1106 08008KT CAVOK TX21/1018Z TN14/1105Z
TEMPO 1019/1024 16007KT 7000 SCT010 PROB30 1104/1106 08005KT 5000 BR SCT007
RMK PHM

Example: see airport list